Time;durP1;ratioP1;P1;durP2;ratioP2;P2;SDS_P1;SDS_P2;PMS_P1;PMS_P2;Temp;Humidity;BMP_temperature;BMP_pressure;BME280_temperature;BME280_humidity;BME280_pressure;Samples;Min_cycle;Max_cycle;Signal;HPM_P1;HPM_P2
2022/04/10 00:01:19;;;;;;;1.30;1.20;;;3.70;99.90;;;;;;5033581;28;20255;-67
2022/04/10 00:03:44;;;;;;;0.90;0.90;;;3.70;99.90;;;;;;5033412;28;20171;-67
2022/04/10 00:06:10;;;;;;;1.40;1.10;;;3.60;99.90;;;;;;5033336;28;20172;-67
2022/04/10 00:08:35;;;;;;;1.60;1.50;;;3.70;99.90;;;;;;5033137;28;20211;-67
2022/04/10 00:11:01;;;;;;;2.50;1.80;;;3.70;99.90;;;;;;5019596;28;20180;-68
2022/04/10 00:13:26;;;;;;;1.10;0.90;;;3.60;99.90;;;;;;5013457;28;20172;-66
2022/04/10 00:15:52;;;;;;;0.93;0.93;;;3.70;99.90;;;;;;5013478;28;20631;-67
2022/04/10 00:18:17;;;;;;;1.50;1.40;;;3.70;99.90;;;;;;5029372;28;20256;-66
2022/04/10 00:20:43;;;;;;;1.40;1.30;;;3.70;99.90;;;;;;5033114;28;20215;-67
2022/04/10 00:23:09;;;;;;;1.43;1.33;;;3.60;99.90;;;;;;5033281;28;20645;-67
2022/04/10 00:25:34;;;;;;;1.70;1.60;;;3.60;99.90;;;;;;5033194;28;20179;-66
2022/04/10 00:28:00;;;;;;;1.50;1.40;;;3.60;99.90;;;;;;5033020;28;20445;-67
2022/04/10 00:30:25;;;;;;;1.50;1.40;;;3.50;99.90;;;;;;5033051;28;20203;-67
2022/04/10 00:32:52;;;;;;;1.77;0.90;;;3.50;99.90;;;;;;5032952;28;20230;-66
2022/04/10 00:35:18;;;;;;;2.07;1.43;;;3.50;99.90;;;;;;5032709;28;20172;-68
2022/04/10 00:37:43;;;;;;;1.23;1.13;;;3.40;99.90;;;;;;5032741;28;20440;-67
2022/04/10 00:40:09;;;;;;;0.90;0.90;;;3.40;99.90;;;;;;5033089;28;20176;-67
2022/04/10 00:42:40;;;;;;;2.13;2.03;;;3.40;99.90;;;;;;5032918;28;20222;-66
2022/04/10 00:45:07;;;;;;;1.53;1.07;;;3.50;99.90;;;;;;5032403;28;20497;-67
2022/04/10 00:47:33;;;;;;;2.40;1.37;;;3.50;99.90;;;;;;5032508;28;20858;-66
2022/04/10 00:50:01;;;;;;;5.30;1.90;;;3.50;99.90;;;;;;5032779;28;20493;-67
2022/04/10 00:52:27;;;;;;;2.00;1.70;;;3.60;99.90;;;;;;5032492;28;20754;-67
2022/04/10 00:54:54;;;;;;;2.10;1.97;;;3.60;99.90;;;;;;5032672;28;20407;-66
2022/04/10 00:57:19;;;;;;;4.83;1.60;;;3.60;99.90;;;;;;5032572;28;20421;-66
2022/04/10 00:59:45;;;;;;;2.10;1.00;;;3.50;99.90;;;;;;5032475;28;20430;-66
2022/04/10 01:02:11;;;;;;;8.93;2.10;;;3.40;99.90;;;;;;5032153;28;20225;-67
2022/04/10 01:04:37;;;;;;;1.40;1.20;;;3.40;99.90;;;;;;5032227;28;20656;-66
2022/04/10 01:07:04;;;;;;;2.73;1.30;;;3.40;99.90;;;;;;5031571;28;20182;-67
2022/04/10 01:09:31;;;;;;;1.33;1.23;;;3.40;99.90;;;;;;5032174;28;20462;-66
2022/04/10 01:11:57;;;;;;;2.30;1.27;;;3.30;99.90;;;;;;5031997;28;20465;-66
2022/04/10 01:14:22;;;;;;;2.33;1.27;;;3.30;99.90;;;;;;5032007;28;20476;-66
2022/04/10 01:16:48;;;;;;;2.63;2.43;;;3.30;99.90;;;;;;5031832;28;20164;-66
2022/04/10 01:19:16;;;;;;;2.30;1.40;;;3.30;99.90;;;;;;5028153;28;20207;-66
2022/04/10 01:21:44;;;;;;;1.60;1.50;;;3.20;99.90;;;;;;5031920;28;20514;-67
2022/04/10 01:24:13;;;;;;;1.67;1.57;;;3.20;99.90;;;;;;5031606;28;20789;-68
2022/04/10 01:26:40;;;;;;;3.80;2.60;;;3.20;99.90;;;;;;5031888;28;20415;-67
2022/04/10 01:29:11;;;;;;;3.30;2.20;;;3.30;99.90;;;;;;5032259;28;20484;-67
2022/04/10 01:31:42;;;;;;;1.57;1.47;;;3.20;99.90;;;;;;5031933;28;20453;-66
2022/04/10 01:34:13;;;;;;;1.97;1.77;;;3.30;99.90;;;;;;5032011;28;20422;-67
2022/04/10 01:36:38;;;;;;;2.40;2.20;;;3.30;99.90;;;;;;5031903;28;20509;-66
2022/04/10 01:39:06;;;;;;;1.93;1.63;;;3.30;99.90;;;;;;5031693;28;20513;-67
2022/04/10 01:41:34;;;;;;;2.40;1.97;;;3.30;99.90;;;;;;5031745;28;20187;-66
2022/04/10 01:44:00;;;;;;;1.57;1.13;;;3.20;99.90;;;;;;5031864;28;20428;-66
2022/04/10 01:46:27;;;;;;;3.63;1.40;;;3.20;99.90;;;;;;5031600;28;20423;-67
2022/04/10 01:48:52;;;;;;;1.80;1.50;;;3.20;99.90;;;;;;5031715;28;20203;-67
2022/04/10 01:51:18;;;;;;;1.30;1.20;;;3.20;99.90;;;;;;5031822;28;20402;-67
2022/04/10 01:53:44;;;;;;;1.80;1.43;;;3.20;99.90;;;;;;5031959;28;20169;-66
2022/04/10 01:56:10;;;;;;;1.60;1.50;;;3.10;99.90;;;;;;5032109;28;20198;-67
2022/04/10 01:58:41;;;;;;;2.53;2.07;;;3.10;99.90;;;;;;5032503;28;20195;-67
2022/04/10 02:01:08;;;;;;;2.10;2.00;;;3.10;99.90;;;;;;5032856;28;20416;-66
2022/04/10 02:03:35;;;;;;;1.63;1.50;;;3.10;99.90;;;;;;5032242;28;20505;-66
2022/04/10 02:06:00;;;;;;;1.70;1.60;;;3.00;99.90;;;;;;5032399;28;20509;-66
2022/04/10 02:08:31;;;;;;;1.30;1.20;;;3.00;99.90;;;;;;5033305;28;20915;-66
2022/04/10 02:10:57;;;;;;;1.30;1.20;;;3.00;99.90;;;;;;5033752;28;20181;-67
2022/04/10 02:13:23;;;;;;;1.10;1.00;;;3.00;99.90;;;;;;5032396;28;20434;-67
2022/04/10 02:15:49;;;;;;;1.70;1.60;;;2.90;99.90;;;;;;5031169;28;20444;-66
2022/04/10 02:18:14;;;;;;;2.20;1.57;;;3.00;99.90;;;;;;5030793;28;20457;-66
2022/04/10 02:20:40;;;;;;;1.97;1.67;;;2.90;99.90;;;;;;5030957;28;20255;-66
2022/04/10 02:23:06;;;;;;;2.37;2.07;;;2.90;99.90;;;;;;5031038;28;20163;-65
2022/04/10 02:25:31;;;;;;;1.30;1.20;;;2.90;99.90;;;;;;5030932;28;20167;-65
2022/04/10 02:27:57;;;;;;;4.53;1.93;;;3.00;99.90;;;;;;5031005;28;20438;-66
2022/04/10 02:30:22;;;;;;;6.40;1.63;;;3.00;99.90;;;;;;5031492;28;20171;-65
2022/04/10 02:32:48;;;;;;;1.80;1.60;;;3.00;99.90;;;;;;5030736;28;20164;-66
2022/04/10 02:35:14;;;;;;;1.70;1.43;;;3.00;99.90;;;;;;5030717;28;20176;-66
2022/04/10 02:37:40;;;;;;;2.40;1.97;;;3.00;99.90;;;;;;5030750;28;20767;-66
2022/04/10 02:40:07;;;;;;;3.30;2.03;;;3.00;99.90;;;;;;5031260;28;20602;-66
2022/04/10 02:42:34;;;;;;;2.23;2.00;;;3.10;99.90;;;;;;5030700;28;20429;-66
2022/04/10 02:45:00;;;;;;;8.33;3.13;;;3.10;99.90;;;;;;5030741;28;20414;-66
2022/04/10 02:47:26;;;;;;;1.73;1.30;;;3.10;99.90;;;;;;5030858;28;20813;-66
2022/04/10 02:49:52;;;;;;;9.80;1.87;;;3.10;99.90;;;;;;5030656;28;20441;-66
2022/04/10 02:52:18;;;;;;;2.03;1.90;;;3.10;99.90;;;;;;5030638;28;20251;-66
2022/04/10 02:54:44;;;;;;;3.30;2.07;;;3.10;99.90;;;;;;5030677;28;20218;-65
2022/04/10 02:57:10;;;;;;;3.00;1.47;;;3.10;99.90;;;;;;5030698;28;20406;-66
2022/04/10 02:59:36;;;;;;;1.93;1.50;;;3.10;99.90;;;;;;5030790;28;20433;-67
2022/04/10 03:02:01;;;;;;;2.43;2.23;;;3.10;99.90;;;;;;5030543;28;20670;-66
2022/04/10 03:04:26;;;;;;;3.63;1.97;;;3.10;99.90;;;;;;5030623;28;20763;-66
2022/04/10 03:06:52;;;;;;;2.53;2.33;;;3.10;99.90;;;;;;5030454;28;20172;-66
2022/04/10 03:09:17;;;;;;;3.00;1.90;;;3.10;99.90;;;;;;5030684;28;20292;-67
2022/04/10 03:11:43;;;;;;;1.80;1.70;;;3.20;99.90;;;;;;5030484;28;20176;-65
2022/04/10 03:14:09;;;;;;;1.30;1.20;;;3.20;99.90;;;;;;5030332;28;20214;-67
2022/04/10 03:16:34;;;;;;;4.20;1.67;;;3.20;99.90;;;;;;5030476;28;20649;-65
2022/04/10 03:18:59;;;;;;;1.33;1.20;;;3.20;99.90;;;;;;5030282;28;20292;-66
2022/04/10 03:21:25;;;;;;;3.33;1.30;;;3.20;99.90;;;;;;5030375;28;20172;-66
2022/04/10 03:23:50;;;;;;;2.97;2.10;;;3.20;99.90;;;;;;5030790;28;20227;-66
2022/04/10 03:26:16;;;;;;;2.03;1.47;;;3.20;99.90;;;;;;5030802;28;20172;-66
2022/04/10 03:28:41;;;;;;;7.73;2.07;;;3.30;99.90;;;;;;5031056;28;20674;-66
2022/04/10 03:31:07;;;;;;;2.97;2.60;;;3.30;99.90;;;;;;5034772;28;20589;-66
2022/04/10 03:33:32;;;;;;;3.73;1.80;;;3.20;99.90;;;;;;5034344;28;20178;-67
2022/04/10 03:35:58;;;;;;;2.60;1.40;;;3.20;99.90;;;;;;5034650;28;20168;-66
2022/04/10 03:38:24;;;;;;;5.70;4.67;;;3.20;99.90;;;;;;5034058;28;20230;-66
2022/04/10 03:40:49;;;;;;;2.03;1.93;;;3.20;99.90;;;;;;5033826;28;20621;-65
2022/04/10 03:43:15;;;;;;;1.90;1.80;;;3.10;99.90;;;;;;5033890;28;20168;-67
2022/04/10 03:45:41;;;;;;;2.17;2.00;;;3.10;99.90;;;;;;5033869;28;20210;-66
2022/04/10 03:48:07;;;;;;;2.80;1.97;;;3.10;99.90;;;;;;5033442;28;20275;-67
2022/04/10 03:50:34;;;;;;;2.13;1.30;;;3.20;99.90;;;;;;5034002;28;20414;-66
2022/04/10 03:53:04;;;;;;;6.07;2.17;;;3.20;99.90;;;;;;5033882;28;20402;-65
2022/04/10 03:55:30;;;;;;;3.83;2.63;;;3.20;99.90;;;;;;5033439;28;20415;-66
2022/04/10 03:57:56;;;;;;;6.60;1.87;;;3.20;99.90;;;;;;5033620;28;20463;-66
2022/04/10 04:00:21;;;;;;;2.93;2.67;;;3.20;99.90;;;;;;5033481;28;20531;-66
2022/04/10 04:02:47;;;;;;;2.27;1.97;;;3.10;99.90;;;;;;5033316;28;20182;-66
2022/04/10 04:05:13;;;;;;;4.00;2.67;;;3.10;99.90;;;;;;5033616;28;20218;-67
2022/04/10 04:07:39;;;;;;;4.50;1.77;;;3.10;99.90;;;;;;5033275;28;20225;-66
2022/04/10 04:10:06;;;;;;;2.23;1.87;;;3.10;99.90;;;;;;5031681;28;20458;-65
2022/04/10 04:12:34;;;;;;;3.70;2.63;;;3.20;99.90;;;;;;5033065;28;20402;-65
2022/04/10 04:14:59;;;;;;;1.53;1.00;;;3.20;99.90;;;;;;5032997;28;20490;-67
2022/04/10 04:17:25;;;;;;;1.37;1.27;;;3.20;99.90;;;;;;5033015;28;20746;-66
2022/04/10 04:19:51;;;;;;;1.53;1.43;;;3.20;99.90;;;;;;5033030;28;20175;-65
2022/04/10 04:22:17;;;;;;;2.93;1.83;;;3.20;99.90;;;;;;5033284;28;20180;-65
2022/04/10 04:24:43;;;;;;;1.00;0.90;;;3.20;99.90;;;;;;5032919;28;20456;-66
2022/04/10 04:27:09;;;;;;;2.40;2.13;;;3.20;99.90;;;;;;5033251;28;20412;-67
2022/04/10 04:29:34;;;;;;;7.33;2.20;;;3.20;99.90;;;;;;5033111;28;20450;-67
2022/04/10 04:32:00;;;;;;;3.00;2.80;;;3.20;99.90;;;;;;5032960;28;20176;-66
2022/04/10 04:34:26;;;;;;;1.67;1.40;;;3.20;99.90;;;;;;5033035;28;20171;-66
2022/04/10 04:36:51;;;;;;;1.50;1.40;;;3.20;99.90;;;;;;5032928;28;20179;-65
2022/04/10 04:39:17;;;;;;;1.47;1.37;;;3.10;99.90;;;;;;5033208;28;20202;-67
2022/04/10 04:41:43;;;;;;;1.37;0.90;;;3.20;99.90;;;;;;5031825;28;20171;-66
2022/04/10 04:44:09;;;;;;;2.63;2.43;;;3.20;99.90;;;;;;5032771;28;20407;-66
2022/04/10 04:46:34;;;;;;;2.10;1.83;;;3.20;99.90;;;;;;5033011;28;20940;-66
2022/04/10 04:49:00;;;;;;;8.40;1.63;;;3.30;99.90;;;;;;5032445;28;20575;-66
2022/04/10 04:51:26;;;;;;;2.17;1.70;;;3.30;99.90;;;;;;5031477;28;20234;-66
2022/04/10 04:53:51;;;;;;;4.80;2.37;;;3.30;99.90;;;;;;5032521;28;20254;-65
2022/04/10 04:56:16;;;;;;;3.10;1.50;;;3.40;99.90;;;;;;5032300;28;20634;-66
2022/04/10 04:58:43;;;;;;;2.20;2.00;;;3.40;99.90;;;;;;5032868;28;20529;-66
2022/04/10 05:01:08;;;;;;;2.57;1.43;;;3.30;99.90;;;;;;5034087;28;20176;-65
2022/04/10 05:03:34;;;;;;;2.73;2.20;;;3.30;99.90;;;;;;5032969;28;20489;-65
2022/04/10 05:05:59;;;;;;;1.27;1.13;;;3.30;99.90;;;;;;5032568;28;20618;-65
2022/04/10 05:08:25;;;;;;;2.33;2.13;;;3.20;99.90;;;;;;5032155;28;20287;-66
2022/04/10 05:10:51;;;;;;;1.50;1.10;;;3.30;99.90;;;;;;5032113;28;20160;-66
2022/04/10 05:13:16;;;;;;;1.33;1.23;;;3.30;99.90;;;;;;5032008;28;20173;-66
2022/04/10 05:15:41;;;;;;;1.30;1.20;;;3.30;99.90;;;;;;5032147;28;20244;-66
2022/04/10 05:18:07;;;;;;;3.80;1.87;;;3.40;99.90;;;;;;5032130;28;20215;-66
2022/04/10 05:20:32;;;;;;;5.80;1.97;;;3.40;99.90;;;;;;5052881;23;20246;-72
2022/04/10 05:22:58;;;;;;;2.90;1.77;;;3.50;99.90;;;;;;5032591;28;20708;-71
2022/04/10 05:25:23;;;;;;;4.30;2.93;;;3.50;99.90;;;;;;5032549;28;20168;-71
2022/04/10 05:27:49;;;;;;;1.80;1.70;;;3.50;99.90;;;;;;5032411;28;20225;-72
2022/04/10 05:30:14;;;;;;;3.20;1.70;;;3.80;99.90;;;;;;5032468;28;20555;-71
2022/04/10 05:32:42;;;;;;;1.10;1.00;;;3.70;99.90;;;;;;5032314;28;20155;-72
2022/04/10 05:35:09;;;;;;;4.17;2.00;;;3.70;99.90;;;;;;5032417;28;20195;-73
2022/04/10 05:37:34;;;;;;;1.73;1.40;;;3.70;99.90;;;;;;5032517;28;20801;-72
2022/04/10 05:40:00;;;;;;;1.93;1.73;;;3.80;99.90;;;;;;5032398;28;20426;-70
2022/04/10 05:42:25;;;;;;;2.40;2.20;;;3.90;99.90;;;;;;5032121;28;20683;-71
2022/04/10 05:44:51;;;;;;;2.20;1.80;;;4.00;99.90;;;;;;5031883;28;20194;-71
2022/04/10 05:47:17;;;;;;;2.30;1.40;;;3.90;99.90;;;;;;5032174;28;20586;-70
2022/04/10 05:49:42;;;;;;;1.40;1.30;;;4.20;99.90;;;;;;5031965;28;20196;-70
2022/04/10 05:52:08;;;;;;;7.73;2.23;;;4.20;99.90;;;;;;5031700;28;20489;-71
2022/04/10 05:54:33;;;;;;;6.10;2.03;;;4.00;99.90;;;;;;5031845;28;20225;-72
2022/04/10 05:56:59;;;;;;;2.73;2.23;;;3.90;99.90;;;;;;5031910;28;20167;-72
2022/04/10 05:59:24;;;;;;;2.67;1.97;;;3.90;99.90;;;;;;5031980;28;20195;-71
2022/04/10 06:01:50;;;;;;;6.00;1.90;;;4.00;99.90;;;;;;5031749;28;20579;-71
2022/04/10 06:04:16;;;;;;;1.87;1.73;;;4.10;99.90;;;;;;5032066;28;20176;-70
2022/04/10 06:06:42;;;;;;;2.80;2.50;;;4.10;99.90;;;;;;5031893;28;20602;-70
2022/04/10 06:09:07;;;;;;;1.33;1.23;;;4.20;99.90;;;;;;5031766;28;20449;-71
2022/04/10 06:11:34;;;;;;;2.13;2.03;;;4.30;99.90;;;;;;5031686;28;20191;-72
2022/04/10 06:13:59;;;;;;;3.73;1.87;;;4.10;99.90;;;;;;5031758;28;20202;-74
2022/04/10 06:16:24;;;;;;;2.17;1.60;;;4.10;99.90;;;;;;5031977;28;20510;-71
2022/04/10 06:18:50;;;;;;;1.40;1.30;;;4.10;99.90;;;;;;5031913;28;20175;-71
2022/04/10 06:21:15;;;;;;;4.83;1.77;;;4.30;99.90;;;;;;5031936;28;20217;-73
2022/04/10 06:23:41;;;;;;;2.30;1.40;;;4.30;99.90;;;;;;5031730;28;20214;-70
2022/04/10 06:26:06;;;;;;;1.67;1.57;;;4.50;99.90;;;;;;5031516;28;20164;-70
2022/04/10 06:28:32;;;;;;;2.67;1.50;;;4.60;99.90;;;;;;5031390;28;20753;-71
2022/04/10 06:30:57;;;;;;;4.47;1.63;;;4.40;99.90;;;;;;5031660;28;20210;-71
2022/04/10 06:33:23;;;;;;;2.70;1.20;;;4.30;99.90;;;;;;5030220;28;20163;-71
2022/04/10 06:35:48;;;;;;;3.73;2.13;;;4.40;99.90;;;;;;5031399;28;20183;-72
2022/04/10 06:38:14;;;;;;;4.10;1.50;;;4.40;99.90;;;;;;5031546;28;20168;-71
2022/04/10 06:40:39;;;;;;;2.10;2.00;;;4.60;99.90;;;;;;5031532;28;20639;-72
2022/04/10 06:43:06;;;;;;;1.50;1.40;;;4.40;99.90;;;;;;5031272;28;20164;-72
2022/04/10 06:45:31;;;;;;;1.60;1.50;;;4.40;99.90;;;;;;5031423;28;20479;-72
2022/04/10 06:47:57;;;;;;;1.73;1.40;;;4.50;99.90;;;;;;5031398;28;20410;-71
2022/04/10 06:50:22;;;;;;;6.83;1.87;;;4.50;99.90;;;;;;5031417;28;20306;-72
2022/04/10 06:52:48;;;;;;;1.27;1.00;;;4.50;99.90;;;;;;5031283;28;20186;-71
2022/04/10 06:55:13;;;;;;;4.40;1.57;;;4.70;99.90;;;;;;5031350;28;20164;-71
2022/04/10 06:57:38;;;;;;;2.53;1.60;;;4.40;99.90;;;;;;5031243;28;20175;-72
2022/04/10 07:00:05;;;;;;;3.87;3.43;;;4.50;99.90;;;;;;5031500;28;20222;-72
2022/04/10 07:02:33;;;;;;;5.50;1.57;;;4.80;99.90;;;;;;5031151;28;20207;-71
2022/04/10 07:04:58;;;;;;;1.63;1.07;;;4.80;99.90;;;;;;5032594;28;20419;-71
2022/04/10 07:07:23;;;;;;;2.23;1.87;;;5.00;99.90;;;;;;5034979;28;20452;-71
2022/04/10 07:09:49;;;;;;;2.60;1.70;;;5.00;99.90;;;;;;5034756;28;20551;-71
2022/04/10 07:12:14;;;;;;;3.17;1.67;;;5.20;99.90;;;;;;5034663;28;20168;-70
2022/04/10 07:14:40;;;;;;;3.17;1.30;;;5.00;99.90;;;;;;5034774;28;20234;-71
2022/04/10 07:17:05;;;;;;;1.53;1.43;;;4.90;99.90;;;;;;5034939;28;20243;-72
2022/04/10 07:19:31;;;;;;;1.73;1.20;;;5.00;99.90;;;;;;5034635;28;20615;-73
2022/04/10 07:24:41;;;;;;;4.80;1.37;;;5.40;99.90;;;;;;5034969;28;20174;-71
2022/04/10 07:27:07;;;;;;;2.10;2.00;;;4.90;99.90;;;;;;5034939;28;20496;-70
2022/04/10 07:29:32;;;;;;;1.50;1.40;;;5.00;99.90;;;;;;5034610;28;20450;-72
2022/04/10 07:31:58;;;;;;;2.57;1.60;;;5.40;99.90;;;;;;5034697;28;20207;-70
2022/04/10 07:34:23;;;;;;;1.40;1.30;;;5.30;99.90;;;;;;5034377;28;20167;-72
2022/04/10 07:36:49;;;;;;;1.60;1.50;;;5.20;99.90;;;;;;5034678;28;20642;-70
2022/04/10 07:39:14;;;;;;;1.87;1.53;;;5.40;99.90;;;;;;5034420;28;20171;-70
2022/04/10 07:41:39;;;;;;;2.60;2.00;;;5.70;99.90;;;;;;5034741;28;20179;-71
2022/04/10 07:44:05;;;;;;;2.47;1.90;;;5.60;99.90;;;;;;5034461;28;20571;-71
2022/04/10 07:49:15;;;;;;;2.00;1.20;;;5.50;99.90;;;;;;5032731;28;20738;-71
2022/04/10 07:51:40;;;;;;;1.23;1.10;;;5.50;99.90;;;;;;5033744;28;20517;-71
2022/04/10 07:54:06;;;;;;;2.33;1.57;;;6.00;99.90;;;;;;5033959;28;20172;-73
2022/04/10 07:56:31;;;;;;;1.60;1.50;;;6.00;99.90;;;;;;5034142;28;20195;-72
2022/04/10 07:58:57;;;;;;;3.93;1.40;;;6.20;99.90;;;;;;5034085;28;20247;-71
2022/04/10 08:01:22;;;;;;;4.97;1.90;;;6.10;99.90;;;;;;5033941;28;20231;-73
2022/04/10 08:03:51;;;;;;;1.47;1.30;;;6.20;99.90;;;;;;5032550;28;20172;-71
2022/04/10 08:06:18;;;;;;;4.23;1.40;;;6.10;99.90;;;;;;5033241;28;20170;-71
2022/04/10 08:08:46;;;;;;;3.23;1.63;;;5.90;99.90;;;;;;5033394;28;20956;-73
2022/04/10 08:11:12;;;;;;;1.30;1.10;;;5.90;99.90;;;;;;5033611;28;20430;-72
2022/04/10 08:13:37;;;;;;;1.67;1.33;;;6.10;99.90;;;;;;5033663;28;20460;-74
2022/04/10 08:16:03;;;;;;;1.87;1.70;;;5.70;99.90;;;;;;5033194;28;20171;-72
2022/04/10 08:18:28;;;;;;;1.70;1.43;;;5.60;99.90;;;;;;5034118;28;20213;-72
2022/04/10 08:20:54;;;;;;;2.70;1.87;;;5.50;99.90;;;;;;5030211;28;20550;-71
2022/04/10 08:23:19;;;;;;;3.67;2.27;;;5.10;99.90;;;;;;5023361;28;20183;-70
2022/04/10 08:25:45;;;;;;;2.43;1.40;;;5.60;99.90;;;;;;5033249;28;20660;-71
2022/04/10 08:28:10;;;;;;;1.70;0.93;;;6.00;99.90;;;;;;5033437;28;20612;-71
2022/04/10 08:30:38;;;;;;;2.33;2.13;;;6.60;99.90;;;;;;5033581;28;20859;-70
2022/04/10 08:33:04;;;;;;;1.10;1.10;;;6.70;99.90;;;;;;5033464;28;20186;-71
2022/04/10 08:35:30;;;;;;;4.00;1.30;;;6.90;99.90;;;;;;5033056;28;20407;-71
2022/04/10 08:37:57;;;;;;;2.83;1.40;;;7.40;99.90;;;;;;5033342;28;20164;-71
2022/04/10 08:40:22;;;;;;;2.80;1.73;;;6.80;99.90;;;;;;5033150;28;20215;-71
2022/04/10 08:42:48;;;;;;;5.43;1.60;;;6.70;99.90;;;;;;5032966;28;20402;-72
2022/04/10 08:45:14;;;;;;;2.23;2.00;;;6.90;99.90;;;;;;5034229;28;20172;-71
2022/04/10 08:47:40;;;;;;;1.80;1.60;;;7.60;99.90;;;;;;5033328;28;20175;-74
2022/04/10 08:50:07;;;;;;;5.60;0.90;;;8.30;99.90;;;;;;5033922;28;20999;-72
2022/04/10 08:52:33;;;;;;;1.50;1.40;;;8.10;99.90;;;;;;5035155;28;20668;-71
2022/04/10 08:54:59;;;;;;;4.07;1.60;;;8.60;99.90;;;;;;5033726;28;20425;-70
2022/04/10 08:57:24;;;;;;;8.37;1.30;;;7.50;99.90;;;;;;5032833;28;20406;-72
2022/04/10 08:59:50;;;;;;;3.53;1.03;;;7.00;99.90;;;;;;5032876;28;20194;-72
2022/04/10 09:02:15;;;;;;;3.20;2.60;;;7.20;99.90;;;;;;5031629;28;20176;-72
2022/04/10 09:04:41;;;;;;;2.40;1.40;;;7.60;99.90;;;;;;5032701;28;20273;-72
2022/04/10 09:07:08;;;;;;;2.13;1.27;;;6.80;99.90;;;;;;5033313;28;20168;-72
2022/04/10 09:09:36;;;;;;;4.20;1.70;;;6.80;99.90;;;;;;5032484;28;20230;-73
2022/04/10 09:12:02;;;;;;;2.47;1.50;;;6.50;99.90;;;;;;5032600;28;20959;-72
2022/04/10 09:14:36;;;;;;;1.60;1.50;;;6.90;99.90;;;;;;5032390;28;20769;-71
2022/04/10 09:17:29;;;;;;;1.63;1.50;;;7.20;99.90;;;;;;5032486;28;20398;-73
2022/04/10 09:19:56;;;;;;;7.40;3.20;;;7.00;99.90;;;;;;5032277;28;20763;-72
2022/04/10 09:22:30;;;;;;;2.70;1.37;;;7.00;99.90;;;;;;5032116;28;20464;-71
2022/04/10 09:25:12;;;;;;;3.13;1.60;;;7.40;99.90;;;;;;5032375;28;20402;-72
2022/04/10 09:27:49;;;;;;;6.63;1.37;;;7.70;99.90;;;;;;5031484;28;20410;-72
2022/04/10 09:30:17;;;;;;;2.50;1.20;;;8.10;99.90;;;;;;5032603;28;20462;-73
2022/04/10 09:32:52;;;;;;;2.03;1.10;;;7.60;99.90;;;;;;5032467;28;20402;-73
2022/04/10 09:35:19;;;;;;;1.73;1.40;;;7.80;99.90;;;;;;5032335;28;20402;-73
2022/04/10 09:37:45;;;;;;;4.10;1.50;;;8.50;99.90;;;;;;5032327;28;20431;-73
2022/04/10 09:40:23;;;;;;;1.37;1.27;;;8.60;99.90;;;;;;5032351;28;20862;-72
2022/04/10 09:42:58;;;;;;;3.50;1.77;;;8.40;99.90;;;;;;5032160;28;20210;-71
2022/04/10 09:45:36;;;;;;;1.10;1.00;;;8.90;99.90;;;;;;5031830;28;20413;-71
2022/04/10 09:48:21;;;;;;;2.40;1.63;;;8.90;99.90;;;;;;5032086;28;20497;-71
2022/04/10 09:50:58;;;;;;;1.63;1.47;;;8.30;99.90;;;;;;5031906;28;20922;-72
2022/04/10 09:53:24;;;;;;;1.97;1.03;;;8.60;99.90;;;;;;5031808;28;20406;-72
2022/04/10 09:55:54;;;;;;;4.63;1.50;;;8.30;99.90;;;;;;5031850;28;20406;-71
2022/04/10 09:58:20;;;;;;;3.13;1.40;;;7.90;99.90;;;;;;5031974;28;20801;-71
2022/04/10 10:00:47;;;;;;;3.67;1.20;;;7.30;99.90;;;;;;5030562;28;20434;-71
2022/04/10 10:03:14;;;;;;;3.50;1.37;;;7.20;99.90;;;;;;5031904;28;20792;-71
2022/04/10 10:05:40;;;;;;;3.43;1.10;;;7.80;99.90;;;;;;5031587;28;20468;-73
2022/04/10 10:08:07;;;;;;;3.43;1.60;;;7.60;99.90;;;;;;5031489;28;20414;-73
2022/04/10 10:10:35;;;;;;;1.80;1.43;;;8.10;99.90;;;;;;5034956;28;20457;-73
2022/04/10 10:13:03;;;;;;;1.30;0.80;;;8.70;99.90;;;;;;5051246;28;20445;-71
2022/04/10 10:15:28;;;;;;;1.30;1.20;;;8.90;99.90;;;;;;5051169;28;20460;-72
2022/04/10 10:17:54;;;;;;;4.17;1.50;;;8.90;99.90;;;;;;5050569;28;20445;-71
2022/04/10 10:20:21;;;;;;;1.07;1.00;;;9.00;99.90;;;;;;5031380;28;20310;-72
2022/04/10 10:22:47;;;;;;;3.00;1.63;;;9.20;99.90;;;;;;5031447;28;20416;-72
2022/04/10 10:25:24;;;;;;;5.17;1.43;;;9.10;99.90;;;;;;5031729;28;20896;-71
2022/04/10 10:28:21;;;;;;;2.50;1.50;;;9.70;99.90;;;;;;5031523;28;20406;-72
2022/04/10 10:31:02;;;;;;;2.00;1.07;;;9.40;99.90;;;;;;5011891;28;20474;-71
2022/04/10 10:33:30;;;;;;;4.77;1.10;;;9.00;99.90;;;;;;5016475;28;20476;-71
2022/04/10 10:35:58;;;;;;;1.20;1.10;;;8.60;99.90;;;;;;5031146;28;20453;-71
2022/04/10 10:38:25;;;;;;;1.10;1.00;;;8.80;99.90;;;;;;5033375;28;20467;-71
2022/04/10 10:40:52;;;;;;;3.23;1.10;;;8.20;99.90;;;;;;5035494;28;20426;-73
2022/04/10 10:43:20;;;;;;;1.13;0.90;;;7.90;99.90;;;;;;5035550;28;20403;-72
2022/04/10 10:45:48;;;;;;;2.43;1.50;;;8.20;99.90;;;;;;5045496;28;20438;-70
2022/04/10 10:48:35;;;;;;;1.50;0.90;;;8.60;99.90;;;;;;5055110;28;20428;-70
2022/04/10 10:51:09;;;;;;;1.93;1.07;;;8.10;99.90;;;;;;5042959;28;20430;-71
2022/04/10 10:53:45;;;;;;;4.30;1.60;;;8.60;99.90;;;;;;5035031;28;20450;-70
2022/04/10 10:56:21;;;;;;;4.00;1.20;;;8.70;99.90;;;;;;5035137;28;20413;-72
2022/04/10 10:58:50;;;;;;;1.93;1.40;;;8.60;99.90;;;;;;5019772;28;20459;-71
2022/04/10 11:01:20;;;;;;;2.57;1.33;;;8.70;99.90;;;;;;5033780;28;20446;-71
2022/04/10 11:04:00;;;;;;;0.80;0.80;;;8.90;99.90;;;;;;5035125;28;20423;-70
2022/04/10 11:06:29;;;;;;;1.70;1.13;;;8.90;99.90;;;;;;5034848;28;20413;-72
2022/04/10 11:08:54;;;;;;;5.13;1.40;;;8.90;99.90;;;;;;5035230;28;20976;-73
2022/04/10 11:11:20;;;;;;;2.50;1.00;;;8.80;99.90;;;;;;5042651;28;20515;-72
2022/04/10 11:13:46;;;;;;;1.63;1.10;;;9.00;99.90;;;;;;5040858;28;20188;-75
2022/04/10 11:16:14;;;;;;;1.83;1.00;;;8.90;99.90;;;;;;5033876;28;20182;-73
2022/04/10 11:18:53;;;;;;;3.10;1.30;;;8.40;99.90;;;;;;5035145;28;20768;-75
2022/04/10 11:21:20;;;;;;;1.10;1.00;;;8.60;99.90;;;;;;5034918;28;20462;-72
2022/04/10 11:23:47;;;;;;;1.23;1.13;;;8.20;99.90;;;;;;5035161;28;20417;-72
2022/04/10 11:26:15;;;;;;;2.03;1.10;;;8.30;99.90;;;;;;5034935;28;20445;-72
2022/04/10 11:29:03;;;;;;;1.30;0.90;;;8.20;99.90;;;;;;5034880;28;20461;-69
2022/04/10 11:31:31;;;;;;;1.73;1.07;;;8.10;99.90;;;;;;5034793;28;20481;-72
2022/04/10 11:34:08;;;;;;;1.43;1.07;;;8.20;99.90;;;;;;5023337;28;20913;-71
2022/04/10 11:36:52;;;;;;;1.00;0.90;;;7.90;99.90;;;;;;5014986;28;20898;-72
2022/04/10 11:39:22;;;;;;;1.47;1.37;;;7.30;99.90;;;;;;5014885;28;20411;-72
2022/04/10 11:41:49;;;;;;;1.90;1.10;;;6.80;99.90;;;;;;5014766;28;20418;-71
2022/04/10 11:44:15;;;;;;;1.10;1.00;;;6.30;99.90;;;;;;5014722;28;20422;-71
2022/04/10 11:46:44;;;;;;;1.63;1.53;;;6.30;99.90;;;;;;5014515;28;20917;-70
2022/04/10 11:49:10;;;;;;;1.10;1.00;;;6.60;99.90;;;;;;5015889;28;20454;-69
2022/04/10 11:51:50;;;;;;;18.07;9.17;;;7.20;99.90;;;;;;5050846;28;20468;-70
2022/04/10 11:54:37;;;;;;;61.07;29.53;;;7.40;99.90;;;;;;5040732;28;20522;-71
2022/04/10 11:57:07;;;;;;;5.57;4.67;;;8.00;99.90;;;;;;5034118;28;20413;-71
2022/04/10 11:59:38;;;;;;;2.63;1.70;;;7.60;99.90;;;;;;5034236;28;20434;-71
2022/04/10 12:02:07;;;;;;;7.13;4.73;;;7.70;99.90;;;;;;5033883;28;20453;-70
2022/04/10 12:04:35;;;;;;;3.53;2.00;;;8.10;99.90;;;;;;5033860;28;20441;-70
2022/04/10 12:07:12;;;;;;;2.50;1.90;;;7.80;99.90;;;;;;5033960;28;20423;-71
2022/04/10 12:09:37;;;;;;;2.60;2.07;;;7.80;99.90;;;;;;5033906;28;20956;-70
2022/04/10 12:12:03;;;;;;;3.20;2.20;;;7.80;99.90;;;;;;5038558;28;20434;-71
2022/04/10 12:14:29;;;;;;;3.67;1.43;;;7.60;99.90;;;;;;5033468;28;20182;-71
2022/04/10 12:16:54;;;;;;;3.20;1.20;;;7.80;99.90;;;;;;5033974;28;20489;-70
2022/04/10 12:19:36;;;;;;;4.10;2.10;;;7.70;99.90;;;;;;5033650;28;20596;-69
2022/04/10 12:22:09;;;;;;;3.50;1.80;;;7.90;99.90;;;;;;5033717;28;20182;-70
2022/04/10 12:24:36;;;;;;;2.53;1.53;;;7.90;99.90;;;;;;5033340;28;20414;-70
2022/04/10 12:27:08;;;;;;;1.53;1.30;;;7.70;99.90;;;;;;5033346;28;20421;-70
2022/04/10 12:29:34;;;;;;;1.10;0.93;;;8.00;99.90;;;;;;5033338;28;20487;-71
2022/04/10 12:32:01;;;;;;;4.17;1.10;;;8.30;99.90;;;;;;5033467;28;20406;-71
2022/04/10 12:34:40;;;;;;;2.03;1.10;;;8.00;99.90;;;;;;5033288;28;20473;-71
2022/04/10 12:37:13;;;;;;;2.03;1.40;;;8.40;99.90;;;;;;5033282;28;20780;-71
2022/04/10 12:39:40;;;;;;;2.60;1.53;;;8.20;99.90;;;;;;5031923;28;20442;-71
2022/04/10 12:42:20;;;;;;;1.20;1.10;;;8.40;99.90;;;;;;5033351;28;20472;-71
2022/04/10 12:44:56;;;;;;;1.03;1.00;;;8.60;99.90;;;;;;5033260;28;20413;-71
2022/04/10 12:47:47;;;;;;;3.37;1.50;;;8.40;99.90;;;;;;5033262;28;20833;-70
2022/04/10 12:50:19;;;;;;;6.83;1.53;;;8.70;99.90;;;;;;5033112;28;20832;-70
2022/04/10 12:52:46;;;;;;;11.63;1.77;;;8.40;99.90;;;;;;5033077;28;20925;-70
2022/04/10 12:55:26;;;;;;;2.50;1.23;;;8.30;99.90;;;;;;5033230;28;20414;-70
2022/04/10 12:57:57;;;;;;;2.67;1.70;;;8.50;99.90;;;;;;5033460;28;20441;-70
2022/04/10 13:00:34;;;;;;;6.20;1.67;;;8.40;99.90;;;;;;5033081;28;20430;-71
2022/04/10 13:03:18;;;;;;;7.17;3.70;;;8.10;99.90;;;;;;5032566;28;20505;-71
2022/04/10 13:05:59;;;;;;;7.23;1.73;;;8.30;99.90;;;;;;5031950;28;20409;-71